Time;durP1;ratioP1;P1;durP2;ratioP2;P2;SDS_P1;SDS_P2;PMS_P1;PMS_P2;Temp;Humidity;BMP_temperature;BMP_pressure;BME280_temperature;BME280_humidity;BME280_pressure;Samples;Min_cycle;Max_cycle;Signal;HPM_P1;HPM_P2
2023/10/21 00:02:02;;;;;;;38.17;11.27;;;;;;;10.52;nan;98365.88;5052154;28;20025;-79
2023/10/21 00:04:28;;;;;;;36.55;12.45;;;;;;;10.51;nan;98370.38;5051652;28;20062;-78
2023/10/21 00:06:53;;;;;;;38.65;11.80;;;;;;;10.47;nan;98366.47;5051721;28;20025;-79
2023/10/21 00:09:19;;;;;;;33.10;11.52;;;;;;;10.45;nan;98373.84;5052015;28;20433;-78
2023/10/21 00:11:44;;;;;;;45.88;12.25;;;;;;;10.42;nan;98374.25;5051936;28;20136;-79
2023/10/21 00:14:09;;;;;;;38.10;12.57;;;;;;;10.42;nan;98387.53;5050858;28;20036;-78
2023/10/21 00:16:35;;;;;;;36.67;12.02;;;;;;;10.41;nan;98394.66;5038020;28;20045;-78
2023/10/21 00:19:00;;;;;;;46.78;13.38;;;;;;;10.38;nan;98387.09;5032204;28;20432;-79
2023/10/21 00:21:26;;;;;;;38.17;12.88;;;;;;;10.37;nan;98396.06;5014031;28;20034;-78
2023/10/21 00:23:51;;;;;;;54.03;14.18;;;;;;;10.36;nan;98389.13;5031442;28;20100;-79
2023/10/21 00:26:16;;;;;;;37.28;13.50;;;;;;;10.39;nan;98390.59;5013867;28;20499;-78
2023/10/21 00:28:42;;;;;;;42.13;12.93;;;;;;;10.41;nan;98396.50;5031726;28;20042;-78
2023/10/21 00:31:07;;;;;;;57.20;13.75;;;;;;;10.46;nan;98390.59;5032503;28;20037;-79
2023/10/21 00:33:33;;;;;;;42.80;13.15;;;;;;;10.48;nan;98394.72;5031782;28;20053;-78
2023/10/21 00:35:58;;;;;;;44.38;15.82;;;;;;;10.45;nan;98400.44;5032119;28;20033;-79
2023/10/21 00:38:24;;;;;;;48.80;15.27;;;;;;;10.43;nan;98402.44;5031779;28;20025;-78
2023/10/21 00:40:53;;;;;;;38.58;13.82;;;;;;;10.46;nan;98404.69;5031903;28;20444;-79
2023/10/21 00:43:39;;;;;;;36.58;12.55;;;;;;;10.48;nan;98415.13;5031431;28;20103;-79
2023/10/21 00:46:16;;;;;;;39.85;13.10;;;;;;;10.51;nan;98420.06;5031973;28;20033;-78
2023/10/21 00:48:42;;;;;;;45.10;14.07;;;;;;;10.54;nan;98417.03;5031913;28;20037;-79
2023/10/21 00:51:09;;;;;;;45.10;12.85;;;;;;;10.53;nan;98426.03;5031402;28;20034;-78
2023/10/21 00:53:35;;;;;;;34.15;12.65;;;;;;;10.51;nan;98428.03;5031316;28;20493;-78
2023/10/21 00:56:01;;;;;;;47.42;13.43;;;;;;;10.50;nan;98426.41;5014106;28;20159;-79
2023/10/21 00:58:30;;;;;;;39.50;12.35;;;;;;;10.50;nan;98424.56;5031507;28;20319;-78
2023/10/21 01:01:01;;;;;;;32.42;12.00;;;;;;;10.53;nan;98431.34;5031835;28;20195;-78
2023/10/21 01:03:28;;;;;;;38.42;13.02;;;;;;;10.52;nan;98429.69;5014323;28;20373;-78
2023/10/21 01:05:53;;;;;;;37.05;11.52;;;;;;;10.53;nan;98436.66;5033574;28;20170;-78
2023/10/21 01:08:19;;;;;;;35.97;11.48;;;;;;;10.54;nan;98443.63;5035526;28;20030;-78
2023/10/21 01:10:44;;;;;;;44.03;11.52;;;;;;;10.55;nan;98440.75;5035212;28;20121;-79
2023/10/21 01:13:10;;;;;;;31.17;11.25;;;;;;;10.57;nan;98445.88;5035007;28;20033;-80
2023/10/21 01:15:35;;;;;;;31.85;11.25;;;;;;;10.55;nan;98446.09;5035005;28;20053;-79
2023/10/21 01:18:03;;;;;;;36.22;11.90;;;;;;;10.54;nan;98448.94;5035207;28;20481;-79
2023/10/21 01:20:28;;;;;;;43.47;11.52;;;;;;;10.54;nan;98449.75;5035103;28;20060;-79
2023/10/21 01:22:56;;;;;;;39.33;11.98;;;;;;;10.54;nan;98449.75;5035697;28;20037;-79
2023/10/21 01:25:22;;;;;;;43.75;11.77;;;;;;;10.57;nan;98448.53;5034652;28;20469;-78
2023/10/21 01:27:53;;;;;;;29.15;11.50;;;;;;;10.58;nan;98453.66;5034949;28;20366;-79
2023/10/21 01:30:19;;;;;;;36.63;10.95;;;;;;;10.62;nan;98469.22;5035546;28;20029;-78
2023/10/21 01:32:46;;;;;;;34.85;11.25;;;;;;;10.60;nan;98466.75;5035704;28;20465;-79
2023/10/21 01:35:11;;;;;;;33.20;10.93;;;;;;;10.53;nan;98466.72;5034715;28;20053;-79
2023/10/21 01:37:37;;;;;;;40.72;11.85;;;;;;;10.51;nan;98466.09;5034987;28;20079;-78
2023/10/21 01:40:02;;;;;;;35.15;10.65;;;;;;;10.48;nan;98470.97;5034931;28;20034;-80
2023/10/21 01:42:27;;;;;;;37.85;11.70;;;;;;;10.49;nan;98473.44;5035369;28;20034;-78
2023/10/21 01:44:55;;;;;;;36.03;11.20;;;;;;;10.45;nan;98474.88;5017563;28;20316;-79
2023/10/21 01:47:20;;;;;;;35.42;11.25;;;;;;;10.44;nan;98469.75;5034673;28;20033;-78
2023/10/21 01:49:46;;;;;;;30.73;10.43;;;;;;;10.44;nan;98475.88;5034969;28;20045;-79
2023/10/21 01:52:11;;;;;;;33.45;10.50;;;;;;;10.40;nan;98472.78;5034406;28;20061;-79
2023/10/21 01:54:36;;;;;;;35.28;10.80;;;;;;;10.37;nan;98472.34;5017293;28;20057;-79
2023/10/21 01:57:03;;;;;;;35.45;11.48;;;;;;;10.33;nan;98471.06;5034188;28;20374;-79
2023/10/21 01:59:28;;;;;;;28.20;10.05;;;;;;;10.30;nan;98482.91;5035150;28;20323;-78
2023/10/21 02:01:54;;;;;;;34.30;11.13;;;;;;;10.30;nan;98476.75;5034427;28;20055;-79
2023/10/21 02:04:19;;;;;;;35.42;11.27;;;;;;;10.31;nan;98483.72;5034463;28;20033;-78
2023/10/21 02:06:44;;;;;;;38.63;11.75;;;;;;;10.31;nan;98484.53;5034259;28;20044;-78
2023/10/21 02:09:10;;;;;;;32.55;11.13;;;;;;;10.34;nan;98492.16;5034352;28;20038;-79
2023/10/21 02:11:35;;;;;;;33.95;11.98;;;;;;;10.37;nan;98497.06;5016637;28;20115;-79
2023/10/21 02:14:01;;;;;;;46.75;12.45;;;;;;;10.42;nan;98504.50;5034079;28;20040;-79
2023/10/21 02:16:27;;;;;;;44.78;13.13;;;;;;;10.47;nan;98502.06;5033514;28;20239;-79
2023/10/21 02:18:54;;;;;;;41.55;12.90;;;;;;;10.50;nan;98506.19;5032897;28;20040;-79
2023/10/21 02:21:20;;;;;;;32.88;12.45;;;;;;;10.50;nan;98511.50;5032685;28;20379;-79
2023/10/21 02:23:45;;;;;;;41.90;13.65;;;;;;;10.51;nan;98524.59;5033151;28;20087;-79
2023/10/21 02:26:10;;;;;;;40.53;12.63;;;;;;;10.53;nan;98522.53;5032731;28;20474;-80
2023/10/21 02:28:36;;;;;;;48.92;13.95;;;;;;;10.55;nan;98523.19;5032852;28;20454;-79
2023/10/21 02:31:03;;;;;;;52.97;13.77;;;;;;;10.58;nan;98529.94;5015302;28;20594;-80
2023/10/21 02:33:29;;;;;;;51.45;14.02;;;;;;;10.58;nan;98522.78;5033162;28;20049;-78
2023/10/21 02:35:55;;;;;;;46.50;13.90;;;;;;;10.62;nan;98527.72;5033192;28;20044;-80
2023/10/21 02:38:22;;;;;;;42.70;14.10;;;;;;;10.64;nan;98529.16;5033503;28;20037;-79
2023/10/21 02:40:48;;;;;;;48.53;15.70;;;;;;;10.65;nan;98530.00;5032934;28;20447;-80
2023/10/21 02:43:14;;;;;;;55.63;17.60;;;;;;;10.69;nan;98531.22;5032504;28;20052;-79
2023/10/21 02:45:42;;;;;;;62.83;17.17;;;;;;;10.75;nan;98535.78;5033437;28;20454;-80
2023/10/21 02:48:08;;;;;;;57.30;16.45;;;;;;;10.74;nan;98534.94;5014828;28;20487;-79
2023/10/21 02:50:33;;;;;;;52.30;16.17;;;;;;;10.73;nan;98543.13;4998870;28;20069;-79
2023/10/21 02:52:59;;;;;;;49.40;16.88;;;;;;;10.70;nan;98538.19;5033516;28;20414;-81
2023/10/21 02:55:27;;;;;;;49.70;16.15;;;;;;;10.69;nan;98552.50;5015021;28;20072;-79
2023/10/21 02:57:53;;;;;;;54.63;17.08;;;;;;;10.67;nan;98546.56;5033083;28;20039;-79
2023/10/21 03:00:21;;;;;;;54.65;16.70;;;;;;;10.64;nan;98553.06;5032645;28;20104;-79
2023/10/21 03:02:48;;;;;;;48.58;16.88;;;;;;;10.60;nan;98557.16;5032831;28;20044;-78
2023/10/21 03:05:14;;;;;;;50.13;16.50;;;;;;;10.56;nan;98559.38;5032340;28;20037;-78
2023/10/21 03:07:40;;;;;;;50.72;16.85;;;;;;;10.51;nan;98563.63;5032450;28;20150;-79
2023/10/21 03:10:06;;;;;;;56.67;16.58;;;;;;;10.50;nan;98559.34;5032368;28;20061;-78
2023/10/21 03:12:32;;;;;;;48.10;16.30;;;;;;;10.48;nan;98567.53;5032314;28;20057;-78
2023/10/21 03:14:58;;;;;;;52.58;17.13;;;;;;;10.44;nan;98571.56;4974876;28;1134557;-78
2023/10/21 03:17:23;;;;;;;53.58;17.15;;;;;;;10.40;nan;98573.81;5033525;28;20049;-79
2023/10/21 03:19:49;;;;;;;55.15;17.50;;;;;;;10.40;nan;98579.13;5014932;28;20048;-78
2023/10/21 03:22:15;;;;;;;50.78;16.73;;;;;;;10.37;nan;98576.81;5015618;28;20037;-79
2023/10/21 03:24:40;;;;;;;48.97;16.48;;;;;;;10.36;nan;98572.53;5032952;28;20083;-79
2023/10/21 03:27:06;;;;;;;53.53;16.52;;;;;;;10.34;nan;98581.72;5032590;28;20033;-79
2023/10/21 03:29:31;;;;;;;53.67;16.42;;;;;;;10.31;nan;98587.38;5014326;28;20339;-78
2023/10/21 03:31:57;;;;;;;64.75;16.45;;;;;;;10.30;nan;98591.06;5033023;28;20030;-79
2023/10/21 03:34:22;;;;;;;57.75;15.68;;;;;;;10.26;nan;98584.50;5032813;28;20022;-78
2023/10/21 03:36:47;;;;;;;54.05;16.83;;;;;;;10.23;nan;98597.13;5033352;28;20451;-79
2023/10/21 03:39:13;;;;;;;48.47;15.48;;;;;;;10.19;nan;98590.56;5014784;28;20136;-78
2023/10/21 03:41:39;;;;;;;46.45;15.68;;;;;;;10.15;nan;98602.59;5032495;28;20052;-79
2023/10/21 03:44:04;;;;;;;53.25;16.33;;;;;;;10.12;nan;98596.81;5032541;28;20102;-79
2023/10/21 03:46:30;;;;;;;56.08;15.77;;;;;;;10.10;nan;98607.66;5032422;28;20524;-79
2023/10/21 03:48:56;;;;;;;50.70;17.02;;;;;;;10.11;nan;98608.50;5014657;28;20406;-78
2023/10/21 03:51:21;;;;;;;49.42;15.55;;;;;;;10.09;nan;98607.84;5032571;28;20071;-79
2023/10/21 03:53:47;;;;;;;45.00;14.98;;;;;;;10.07;nan;98613.34;5032735;28;20029;-78
2023/10/21 03:56:14;;;;;;;55.13;15.23;;;;;;;10.04;nan;98611.06;5032718;28;20029;-78
2023/10/21 03:58:40;;;;;;;48.83;15.50;;;;;;;10.00;nan;98609.81;5032293;28;20407;-78
2023/10/21 04:01:05;;;;;;;44.88;14.85;;;;;;;9.99;nan;98614.28;5032216;28;20064;-78
2023/10/21 04:03:31;;;;;;;49.30;15.23;;;;;;;10.02;nan;98621.06;5032182;28;20439;-78
2023/10/21 04:05:57;;;;;;;48.15;14.50;;;;;;;10.02;nan;98619.22;5031899;28;20048;-78
2023/10/21 04:08:23;;;;;;;45.40;15.32;;;;;;;10.03;nan;98628.00;5032587;28;20593;-78
2023/10/21 04:10:49;;;;;;;49.53;14.85;;;;;;;10.04;nan;98634.97;5032050;28;20195;-78
2023/10/21 04:13:15;;;;;;;44.88;14.68;;;;;;;10.02;nan;98626.38;5031949;28;20033;-79
2023/10/21 04:15:41;;;;;;;45.05;14.35;;;;;;;10.02;nan;98637.00;5031890;28;20565;-78
2023/10/21 04:18:06;;;;;;;40.00;13.55;;;;;;;10.00;nan;98631.91;5032228;28;20471;-78
2023/10/21 04:20:32;;;;;;;49.78;14.63;;;;;;;10.00;nan;98644.34;5031898;28;20484;-79
2023/10/21 04:22:58;;;;;;;57.53;15.20;;;;;;;10.00;nan;98649.66;5031696;28;20034;-78
2023/10/21 04:25:24;;;;;;;39.35;13.85;;;;;;;9.99;nan;98656.81;5032103;28;20071;-78
2023/10/21 04:27:49;;;;;;;38.95;13.32;;;;;;;9.98;nan;98663.13;5031793;28;20419;-78
2023/10/21 04:30:15;;;;;;;40.88;13.85;;;;;;;10.01;nan;98662.75;5032275;28;20064;-79
2023/10/21 04:32:40;;;;;;;41.47;12.60;;;;;;;10.05;nan;98666.69;5032314;28;20091;-78
2023/10/21 04:35:08;;;;;;;40.92;12.63;;;;;;;10.09;nan;98664.47;5031937;28;20113;-78
2023/10/21 04:37:33;;;;;;;48.72;14.15;;;;;;;10.11;nan;98682.88;5032217;28;20033;-79
2023/10/21 04:39:59;;;;;;;51.53;14.00;;;;;;;10.20;nan;98685.22;5031198;28;20044;-78
2023/10/21 04:42:24;;;;;;;48.78;12.32;;;;;;;10.33;nan;98689.00;5013641;28;20124;-78
2023/10/21 04:44:51;;;;;;;40.00;12.45;;;;;;;10.46;nan;98694.50;5031981;28;20044;-79
2023/10/21 04:47:17;;;;;;;38.40;13.63;;;;;;;10.57;nan;98691.31;4997722;28;20408;-80
2023/10/21 04:49:45;;;;;;;51.03;15.23;;;;;;;10.67;nan;98698.97;5031714;28;20033;-78
2023/10/21 04:52:11;;;;;;;46.85;15.77;;;;;;;10.75;nan;98703.34;5031656;28;20208;-78
2023/10/21 04:54:37;;;;;;;73.68;21.17;;;;;;;10.86;nan;98704.66;5031489;28;20124;-76
2023/10/21 04:57:02;;;;;;;64.43;22.90;;;;;;;10.93;nan;98708.19;5031482;28;20039;-78
2023/10/21 04:59:28;;;;;;;68.88;22.13;;;;;;;10.98;nan;98707.59;5031567;28;20041;-81
2023/10/21 05:01:53;;;;;;;63.80;21.90;;;;;;;11.04;nan;98715.63;5032149;28;20033;-81
2023/10/21 05:04:18;;;;;;;63.40;23.55;;;;;;;11.07;nan;98725.06;5031567;28;20045;-79
2023/10/21 05:06:44;;;;;;;56.40;23.52;;;;;;;11.10;nan;98730.81;5031683;28;20036;-80
2023/10/21 05:09:10;;;;;;;49.72;23.38;;;;;;;11.14;nan;98722.44;5014061;28;20030;-80
2023/10/21 05:11:36;;;;;;;59.00;23.83;;;;;;;11.13;nan;98729.59;5031564;28;20207;-80
2023/10/21 05:14:02;;;;;;;59.65;25.08;;;;;;;11.15;nan;98732.91;5031939;28;20069;-78
2023/10/21 05:16:27;;;;;;;57.53;23.35;;;;;;;11.14;nan;98741.91;5031523;28;20184;-77
2023/10/21 05:18:52;;;;;;;57.25;23.42;;;;;;;11.15;nan;98732.91;5031589;28;20042;-78
2023/10/21 05:21:18;;;;;;;58.20;22.98;;;;;;;11.15;nan;98735.59;5031223;28;20037;-80
2023/10/21 05:23:43;;;;;;;52.15;21.33;;;;;;;11.18;nan;98740.50;5013431;28;20162;-79
2023/10/21 05:26:08;;;;;;;49.03;21.67;;;;;;;11.19;nan;98738.66;5031102;28;20052;-80
2023/10/21 05:28:34;;;;;;;44.13;19.73;;;;;;;11.20;nan;98748.31;5031467;28;20034;-79
2023/10/21 05:31:01;;;;;;;41.25;18.60;;;;;;;11.19;nan;98755.44;5031683;28;20128;-80
2023/10/21 05:33:27;;;;;;;46.47;17.95;;;;;;;11.21;nan;98748.09;5031880;28;20072;-81
2023/10/21 05:36:00;;;;;;;37.95;17.45;;;;;;;11.23;nan;98758.56;5031111;28;20056;-81
2023/10/21 05:38:26;;;;;;;41.03;16.17;;;;;;;11.24;nan;98757.53;5031291;28;20453;-80
2023/10/21 05:40:52;;;;;;;34.90;15.98;;;;;;;11.26;nan;98766.16;5031384;28;20076;-80
2023/10/21 05:43:17;;;;;;;38.97;14.15;;;;;;;11.25;nan;98761.84;5031142;28;20426;-80
2023/10/21 05:45:43;;;;;;;33.47;14.02;;;;;;;11.27;nan;98762.47;5031643;28;20036;-81
2023/10/21 05:48:09;;;;;;;27.98;12.23;;;;;;;11.28;nan;98759.59;5031371;28;20037;-80
2023/10/21 05:50:35;;;;;;;28.40;11.70;;;;;;;11.30;nan;98772.75;5013632;28;20045;-80
2023/10/21 05:53:01;;;;;;;21.33;10.60;;;;;;;11.28;nan;98775.56;5034656;28;20037;-80
2023/10/21 05:55:26;;;;;;;24.60;10.88;;;;;;;11.31;nan;98784.22;5034740;28;20121;-79
2023/10/21 05:57:53;;;;;;;24.58;9.93;;;;;;;11.31;nan;98786.88;5016657;28;20103;-79
2023/10/21 06:00:18;;;;;;;22.95;9.13;;;;;;;11.29;nan;98784.41;5034567;28;20462;-80
2023/10/21 06:02:44;;;;;;;19.67;8.48;;;;;;;11.29;nan;98797.72;5034347;28;20065;-79
2023/10/21 06:05:09;;;;;;;23.35;8.30;;;;;;;11.30;nan;98802.03;5034442;28;20037;-80
2023/10/21 06:07:35;;;;;;;19.65;8.18;;;;;;;11.29;nan;98803.84;5034631;28;20026;-80
2023/10/21 06:10:00;;;;;;;21.05;7.88;;;;;;;11.28;nan;98817.34;5034355;28;20037;-80
2023/10/21 06:12:25;;;;;;;21.58;7.78;;;;;;;11.29;nan;98817.16;5034023;28;20087;-80
2023/10/21 06:14:51;;;;;;;23.55;8.23;;;;;;;11.32;nan;98820.47;5016574;28;20034;-80
2023/10/21 06:17:17;;;;;;;18.73;7.15;;;;;;;11.33;nan;98830.09;5034511;28;20526;-79
2023/10/21 06:19:44;;;;;;;14.18;7.55;;;;;;;11.37;nan;98828.69;5034108;28;20105;-80
2023/10/21 06:22:12;;;;;;;19.65;8.43;;;;;;;11.36;nan;98835.88;5033892;28;20486;-79
2023/10/21 06:24:38;;;;;;;20.20;7.20;;;;;;;11.36;nan;98840.34;5016462;28;20116;-80
2023/10/21 06:27:04;;;;;;;16.77;7.22;;;;;;;11.38;nan;98841.81;5016065;28;20121;-79
2023/10/21 06:29:30;;;;;;;18.05;7.07;;;;;;;11.39;nan;98842.63;5034475;28;20079;-79
2023/10/21 06:31:55;;;;;;;18.05;7.28;;;;;;;11.39;nan;98843.47;5016349;28;20409;-78
2023/10/21 06:34:21;;;;;;;25.50;7.35;;;;;;;11.40;nan;98857.59;5033854;28;20039;-79
2023/10/21 06:36:46;;;;;;;23.05;7.40;;;;;;;11.40;nan;98852.25;5016003;28;20120;-80
2023/10/21 06:39:12;;;;;;;24.08;7.32;;;;;;;11.40;nan;98852.25;5033526;28;20469;-79
2023/10/21 06:41:37;;;;;;;13.90;7.05;;;;;;;11.41;nan;98859.25;5033690;28;20442;-80
2023/10/21 06:44:02;;;;;;;17.17;8.25;;;;;;;11.47;nan;98866.47;5033375;28;20492;-80
2023/10/21 06:46:28;;;;;;;18.20;6.70;;;;;;;11.47;nan;98872.59;5033465;28;20029;-79
2023/10/21 06:48:54;;;;;;;18.95;7.30;;;;;;;11.46;nan;98881.63;5034254;28;20438;-79
2023/10/21 06:51:19;;;;;;;23.23;7.25;;;;;;;11.45;nan;98881.81;5034385;28;20041;-79
2023/10/21 06:53:45;;;;;;;20.95;7.05;;;;;;;11.48;nan;98884.09;5034622;28;20030;-78
2023/10/21 06:56:12;;;;;;;21.02;6.90;;;;;;;11.51;nan;98898.84;5016921;28;20047;-79
2023/10/21 06:58:38;;;;;;;23.10;7.30;;;;;;;11.53;nan;98894.97;5034605;28;20075;-81
2023/10/21 07:01:03;;;;;;;15.18;7.10;;;;;;;11.55;nan;98905.44;5034439;28;20128;-81
2023/10/21 07:03:29;;;;;;;15.10;7.18;;;;;;;11.58;nan;98907.72;5033403;28;20474;-80
2023/10/21 07:05:55;;;;;;;11.85;5.78;;;;;;;11.59;nan;98907.53;5034375;28;20037;-80
2023/10/21 07:08:20;;;;;;;16.10;6.35;;;;;;;11.67;nan;98919.06;5016558;28;20444;-81
2023/10/21 07:10:45;;;;;;;11.80;5.07;;;;;;;11.69;nan;98922.34;5034334;28;20136;-82
2023/10/21 07:13:11;;;;;;;14.38;5.22;;;;;;;11.68;nan;98920.72;5016427;28;20037;-81
2023/10/21 07:15:36;;;;;;;10.45;4.47;;;;;;;11.69;nan;98928.50;5033788;28;20058;-80
2023/10/21 07:18:02;;;;;;;12.88;4.13;;;;;;;11.69;nan;98931.19;5033955;28;20037;-81
2023/10/21 07:20:27;;;;;;;9.02;4.43;;;;;;;11.74;nan;98943.91;5033955;28;20045;-82
2023/10/21 07:22:54;;;;;;;10.93;4.03;;;;;;;11.73;nan;98937.75;5034106;28;20080;-82
2023/10/21 07:25:19;;;;;;;10.18;4.03;;;;;;;11.78;nan;98940.66;5033722;28;20411;-85
2023/10/21 07:27:46;;;;;;;8.50;3.65;;;;;;;11.82;nan;98943.75;5034066;28;20036;-84
2023/10/21 07:30:12;;;;;;;8.07;4.15;;;;;;;11.85;nan;98950.56;5033883;28;20038;-83
2023/10/21 07:32:37;;;;;;;10.95;4.13;;;;;;;11.83;nan;98948.09;5033827;28;20079;-84
2023/10/21 07:35:04;;;;;;;9.98;3.95;;;;;;;11.86;nan;98955.69;5033411;28;20159;-83
2023/10/21 07:37:30;;;;;;;8.55;3.72;;;;;;;11.89;nan;98947.31;5033704;28;20123;-84
2023/10/21 07:39:58;;;;;;;8.07;3.30;;;;;;;11.89;nan;98957.97;5034166;28;20033;-83
2023/10/21 07:42:23;;;;;;;7.80;3.38;;;;;;;11.95;nan;98962.53;5033685;28;20450;-84
2023/10/21 07:44:49;;;;;;;6.03;3.20;;;;;;;11.99;nan;98963.81;5033262;28;20048;-84
2023/10/21 07:47:14;;;;;;;6.95;3.10;;;;;;;12.00;nan;98972.63;5033723;28;20163;-83
2023/10/21 07:49:40;;;;;;;4.53;2.60;;;;;;;12.07;nan;98978.00;5033142;28;20040;-82
2023/10/21 07:52:06;;;;;;;9.68;2.78;;;;;;;12.08;nan;98972.50;5033896;28;20061;-80
2023/10/21 07:54:31;;;;;;;7.18;2.38;;;;;;;12.12;nan;98983.56;5015116;28;20466;-82
2023/10/21 07:56:57;;;;;;;7.25;2.53;;;;;;;12.13;nan;98985.22;5032854;28;20061;-82
2023/10/21 07:59:22;;;;;;;7.90;2.50;;;;;;;12.09;nan;98981.31;5033195;28;20033;-84
2023/10/21 08:01:49;;;;;;;8.48;2.80;;;;;;;12.06;nan;98985.19;5033230;28;20037;-83
2023/10/21 08:04:14;;;;;;;5.50;2.03;;;;;;;11.97;nan;98995.19;5032701;28;20445;-82
2023/10/21 08:06:41;;;;;;;3.92;1.85;;;;;;;11.91;nan;98987.94;5032777;28;20025;-81
2023/10/21 08:09:08;;;;;;;7.68;2.05;;;;;;;11.90;nan;98990.78;5014993;28;20470;-83
2023/10/21 08:11:33;;;;;;;3.60;1.92;;;;;;;11.92;nan;98988.75;5032247;28;20033;-82
2023/10/21 08:13:59;;;;;;;7.30;1.65;;;;;;;11.99;nan;99000.31;5032056;28;20032;-82
2023/10/21 08:16:24;;;;;;;7.13;3.08;;;;;;;11.97;nan;99000.50;5032601;28;20139;-85
2023/10/21 08:18:50;;;;;;;3.67;1.55;;;;;;;11.93;nan;99017.06;5014989;28;20439;-83
2023/10/21 08:21:16;;;;;;;3.13;1.80;;;;;;;11.84;nan;99016.34;5032535;28;20041;-85
2023/10/21 08:23:42;;;;;;;8.18;1.77;;;;;;;11.82;nan;99034.34;5032542;28;20102;-85
2023/10/21 08:26:07;;;;;;;4.15;1.80;;;;;;;11.91;nan;99033.22;5032806;28;20041;-85
2023/10/21 08:28:32;;;;;;;4.93;1.73;;;;;;;11.95;nan;99036.34;5032757;28;20095;-86
2023/10/21 08:30:58;;;;;;;7.18;2.22;;;;;;;12.01;nan;99054.25;5032554;28;20476;-86
2023/10/21 08:33:23;;;;;;;3.28;1.50;;;;;;;12.05;nan;99058.19;5032338;28;20036;-86
2023/10/21 08:35:48;;;;;;;6.18;1.83;;;;;;;12.01;nan;99056.91;5032478;28;20030;-86
2023/10/21 08:38:14;;;;;;;4.57;1.63;;;;;;;12.08;nan;99046.31;5032426;28;20049;-85
2023/10/21 08:40:41;;;;;;;8.32;1.60;;;;;;;12.07;nan;99058.81;5032415;28;20124;-85
2023/10/21 08:43:08;;;;;;;3.45;1.60;;;;;;;12.07;nan;99066.78;5032258;28;20037;-83
2023/10/21 08:45:35;;;;;;;1.98;1.20;;;;;;;12.08;nan;99063.13;5032410;28;20076;-84
2023/10/21 08:48:01;;;;;;;3.40;1.20;;;;;;;12.12;nan;99067.06;5033159;28;20038;-84
2023/10/21 08:50:27;;;;;;;6.85;1.30;;;;;;;12.07;nan;99068.66;5034492;28;20036;-80
2023/10/21 08:52:56;;;;;;;3.22;1.08;;;;;;;12.04;nan;99074.38;5032901;28;20076;-83
2023/10/21 08:55:23;;;;;;;1.83;1.15;;;;;;;12.00;nan;99068.56;5016941;28;20470;-81
2023/10/21 08:57:50;;;;;;;5.82;1.55;;;;;;;11.98;nan;99070.63;5034525;28;20034;-83
2023/10/21 09:00:17;;;;;;;3.53;1.10;;;;;;;11.96;nan;99078.00;5033973;28;20501;-82
2023/10/21 09:02:42;;;;;;;5.00;1.30;;;;;;;11.95;nan;99077.16;5035066;28;20037;-82
2023/10/21 09:05:11;;;;;;;2.90;1.17;;;;;;;11.98;nan;99079.44;5034230;28;20096;-82
2023/10/21 09:07:49;;;;;;;2.78;1.40;;;;;;;12.00;nan;99095.22;5034569;28;20040;-82
2023/10/21 09:10:16;;;;;;;4.40;1.30;;;;;;;11.88;nan;99088.72;5035071;28;20034;-84
2023/10/21 09:12:41;;;;;;;4.50;1.33;;;;;;;11.93;nan;99095.19;5034856;28;20105;-83
2023/10/21 09:15:09;;;;;;;1.95;1.20;;;;;;;11.91;nan;99109.66;5016614;28;20049;-84
2023/10/21 09:17:39;;;;;;;2.67;1.25;;;;;;;11.89;nan;99099.19;5034954;28;20026;-85
2023/10/21 09:20:22;;;;;;;2.72;1.02;;;;;;;11.88;nan;99110.88;5034127;28;20037;-87
2023/10/21 09:22:49;;;;;;;3.92;1.27;;;;;;;11.92;nan;99114.00;5036051;28;20033;-83
2023/10/21 09:25:22;;;;;;;2.38;1.45;;;;;;;12.00;nan;99119.22;5017939;28;20034;-84
2023/10/21 09:27:55;;;;;;;3.33;1.15;;;;;;;12.07;nan;99129.97;5038826;28;20041;-84
2023/10/21 09:30:30;;;;;;;5.38;1.38;;;;;;;12.11;nan;99125.91;5040121;28;20033;-84
2023/10/21 09:33:06;;;;;;;1.75;1.20;;;;;;;12.14;nan;99125.53;5037867;28;20389;-81
2023/10/21 09:35:32;;;;;;;3.47;1.40;;;;;;;12.20;nan;99134.59;5038566;28;20033;-87
2023/10/21 09:38:15;;;;;;;3.00;1.40;;;;;;;12.26;nan;99141.84;5037963;28;20505;-85
2023/10/21 09:40:41;;;;;;;7.18;1.00;;;;;;;12.28;nan;99134.47;5037611;28;20021;-84
2023/10/21 09:43:10;;;;;;;3.17;1.48;;;;;;;12.52;nan;99133.22;5020787;28;20085;-87
2023/10/21 09:45:37;;;;;;;1.75;1.00;;;;;;;12.50;nan;99136.06;5037945;28;20037;-81
2023/10/21 09:48:06;;;;;;;2.90;1.35;;;;;;;12.97;nan;99144.44;5038028;28;20033;-84
2023/10/21 09:50:34;;;;;;;3.70;1.35;;;;;;;13.31;nan;99153.44;5020871;28;20101;-87
2023/10/21 09:53:11;;;;;;;6.47;1.60;;;;;;;13.56;nan;99143.09;5020353;28;20060;-86
2023/10/21 09:55:39;;;;;;;5.32;1.35;;;;;;;13.46;nan;99144.50;5019804;28;20358;-86
2023/10/21 09:58:07;;;;;;;3.35;1.30;;;;;;;13.33;nan;99146.06;5018748;28;20045;-83
2023/10/21 10:00:35;;;;;;;4.50;1.20;;;;;;;13.54;nan;99141.63;5037313;28;20026;-81
2023/10/21 10:03:01;;;;;;;3.10;1.30;;;;;;;13.98;nan;99151.03;5037437;28;20059;-84
2023/10/21 10:05:27;;;;;;;4.75;1.30;;;;;;;14.24;nan;99147.59;5037427;28;20539;-88
2023/10/21 10:07:52;;;;;;;4.25;1.23;;;;;;;14.50;nan;99145.94;5038135;28;20033;-89
2023/10/21 10:10:27;;;;;;;7.00;1.42;;;;;;;14.36;nan;99144.28;5037609;28;20528;-85
2023/10/21 10:12:57;;;;;;;4.60;1.20;;;;;;;14.51;nan;99166.34;5037736;28;20033;-88
2023/10/21 10:15:27;;;;;;;5.57;1.27;;;;;;;13.87;nan;99165.81;5036571;28;20054;-81
2023/10/21 10:17:53;;;;;;;5.82;1.08;;;;;;;13.65;nan;99166.97;5036624;28;20029;-85
2023/10/21 10:20:24;;;;;;;5.72;1.85;;;;;;;13.81;nan;99174.63;5036761;28;20168;-87
2023/10/21 10:23:03;;;;;;;4.63;1.27;;;;;;;13.82;nan;99172.78;5036925;28;20040;-86
2023/10/21 10:25:33;;;;;;;3.30;1.17;;;;;;;13.82;nan;99186.16;5041512;28;20039;-85
2023/10/21 10:28:20;;;;;;;8.48;1.27;;;;;;;13.71;nan;99167.00;5041608;28;20476;-84
2023/10/21 10:30:50;;;;;;;4.60;1.08;;;;;;;13.65;nan;99183.00;5040297;28;20037;-86
2023/10/21 10:33:43;;;;;;;3.50;1.10;;;;;;;13.68;nan;99186.09;5039301;28;20093;-83
2023/10/21 10:36:12;;;;;;;3.08;0.95;;;;;;;13.79;nan;99175.84;5033445;28;20048;-87
2023/10/21 10:38:47;;;;;;;3.67;1.25;;;;;;;13.75;nan;99184.28;5036531;28;20113;-86
2023/10/21 10:41:17;;;;;;;4.35;1.00;;;;;;;13.79;nan;99182.03;5037730;28;20103;-89
2023/10/21 10:43:49;;;;;;;6.60;1.23;;;;;;;13.72;nan;99192.69;5038057;28;20446;-85
2023/10/21 10:46:20;;;;;;;8.23;1.75;;;;;;;13.75;nan;99186.94;5019620;28;20029;-89
2023/10/21 10:48:48;;;;;;;2.53;1.05;;;;;;;13.80;nan;99174.84;5037275;28;20156;-86
2023/10/21 10:51:15;;;;;;;6.63;1.30;;;;;;;13.83;nan;99182.47;5035864;28;20091;-85
2023/10/21 10:54:00;;;;;;;7.20;1.65;;;;;;;13.86;nan;99187.41;5035468;28;20041;-84
2023/10/21 10:56:39;;;;;;;6.30;1.40;;;;;;;13.84;nan;99184.09;5018565;28;20132;-85
2023/10/21 10:59:05;;;;;;;2.55;1.00;;;;;;;13.72;nan;99191.88;5035455;28;20441;-86
2023/10/21 11:01:30;;;;;;;8.02;1.48;;;;;;;13.65;nan;99181.16;5035993;28;20147;-88
2023/10/21 11:03:58;;;;;;;3.05;1.00;;;;;;;13.63;nan;99195.72;5036035;28;20030;-87
2023/10/21 11:06:39;;;;;;;4.75;1.17;;;;;;;13.70;nan;99189.41;5035383;28;20029;-87
2023/10/21 11:09:07;;;;;;;7.03;1.30;;;;;;;13.74;nan;99187.97;5035922;28;20064;-86
2023/10/21 11:11:46;;;;;;;5.47;1.25;;;;;;;13.94;nan;99192.56;5035236;28;20031;-85
2023/10/21 11:14:15;;;;;;;6.40;1.00;;;;;;;14.05;nan;99197.34;5035143;28;20060;-87
2023/10/21 11:16:40;;;;;;;7.07;2.30;;;;;;;14.00;nan;99218.50;5035867;28;20068;-83
2023/10/21 11:19:06;;;;;;;5.13;1.50;;;;;;;13.97;nan;99200.16;5036017;28;20444;-86
2023/10/21 11:21:39;;;;;;;3.90;1.10;;;;;;;13.96;nan;99195.03;5036919;28;20133;-87
2023/10/21 11:24:06;;;;;;;6.35;1.42;;;;;;;13.91;nan;99207.16;5037160;28;20037;-86
2023/10/21 11:26:31;;;;;;;6.82;1.30;;;;;;;13.85;nan;99196.44;5018325;28;20034;-85
2023/10/21 11:28:57;;;;;;;7.53;1.40;;;;;;;13.88;nan;99202.22;5036643;28;20492;-86
2023/10/21 11:31:22;;;;;;;5.53;1.20;;;;;;;13.85;nan;99199.13;5036690;28;20040;-87
2023/10/21 11:33:48;;;;;;;10.30;1.58;;;;;;;13.80;nan;99199.72;5036648;28;20032;-86
2023/10/21 11:36:13;;;;;;;12.48;1.95;;;;;;;13.84;nan;99200.97;5035522;28;20033;-84
2023/10/21 11:38:38;;;;;;;8.32;1.25;;;;;;;13.87;nan;99205.09;5036144;28;20037;-82
2023/10/21 11:41:11;;;;;;;8.25;1.40;;;;;;;13.91;nan;99206.31;5035153;28;20116;-84